»·PEaware :: JNY200 KRNO-KSFO

JNY200 :: KRNO-KSFO

FLIGHT INFORMATION

Flight Status: Arrived
Operator: Unknown
More flights by this operator :: More flights under this callsign
Pilot: Max W. (2591)
Aircraft: AIRBUS A320
(A320)
More flights by this aircraft type
Origin: KRNO Reno/Tahoe Intl
United States
Destination: KSFO San Francisco Intl
United States
More flights between these airports :: More routes between these airports
Route: +ZEFFR6 MRLET LEGGS STLER3
File this flight plan on PilotEdge
Remarks:
Altitude:
(Current/Filed)
28,000ft
Speed:
(Current/Filed)
400kts
Departed: 15-May-19 07:47 PM
Arrived: 15-May-19 08:31 PM
Distance/Time
Traveled:
166nm/0:43
Distance/Time
To Go:
Arrived

Flight Plot

Page will automatically refresh every two minutes.


Map Options




Map Legend


Flown Route
Filed Route
Departure Airport
Arrival Airport
Navaid (VOR, NDB)
Fix

Horizontal Profiles

Position Reports

Time Latitude Longitude Heading Altitude Ground
Speed
15-May-19 19:23 39.502028 -119.764444 270 4418ft 0kts
15-May-19 19:24 39.502028 -119.764444 270 4418ft 0kts
15-May-19 19:25 39.502028 -119.764444 270 4418ft 0kts
15-May-19 19:26 39.502028 -119.764444 270 4418ft 0kts
15-May-19 19:27 39.502028 -119.764444 270 4418ft 0kts
15-May-19 19:28 39.502028 -119.764444 270 4418ft 0kts
15-May-19 19:29 39.502028 -119.764444 270 4418ft 0kts
15-May-19 19:30 39.502028 -119.764444 270 4418ft 0kts
15-May-19 19:31 39.502028 -119.764444 270 4418ft 0kts
15-May-19 19:32 39.502028 -119.764444 270 4418ft 0kts
15-May-19 19:33 39.502028 -119.764444 270 4418ft 0kts
15-May-19 19:34 39.502028 -119.764444 270 4418ft 0kts
15-May-19 19:35 39.502028 -119.764444 270 4418ft 0kts
15-May-19 19:36 39.502028 -119.764444 270 4418ft 0kts
15-May-19 19:37 39.502028 -119.764444 270 4418ft 0kts
15-May-19 19:38 39.502028 -119.764444 270 4418ft 0kts
15-May-19 19:39 39.502028 -119.764445 270 4418ft 0kts
15-May-19 19:40 39.502028 -119.764445 270 4418ft 0kts
15-May-19 19:41 39.502024 -119.764561 265 4418ft 0kts
15-May-19 19:42 39.504714 -119.765791 4 4418ft 16kts
15-May-19 19:43 39.510555 -119.765301 13 4418ft 8kts
15-May-19 19:44 39.513541 -119.765348 314 4418ft 0kts
15-May-19 19:45 39.513541 -119.765348 314 4418ft 0kts
15-May-19 19:46 39.503486 -119.766765 181 4446ft 164kts
15-May-19 19:47 39.446753 -119.768033 184 8428ft 243kts
15-May-19 19:48 39.368096 -119.769678 181 11414ft 327kts
15-May-19 19:49 39.275335 -119.782776 193 15330ft 338kts
15-May-19 19:50 39.183185 -119.815072 211 18602ft 351kts
15-May-19 19:51 39.145106 -119.928197 274 21439ft 389kts
15-May-19 19:52 39.168147 -120.066622 276 23922ft 403kts
15-May-19 19:53 39.192117 -120.210095 276 26149ft 414kts
15-May-19 19:54 39.216556 -120.356859 276 27850ft 420kts
15-May-19 19:55 39.241586 -120.508395 276 27906ft 441kts
15-May-19 19:56 39.266424 -120.660025 275 27906ft 441kts
15-May-19 19:57 39.291399 -120.813822 275 27884ft 441kts
15-May-19 19:58 39.316446 -120.969404 275 27848ft 440kts
15-May-19 19:59 39.307720 -121.121383 243 27854ft 422kts
15-May-19 20:00 39.241386 -121.242479 227 27856ft 413kts
15-May-19 20:01 39.167459 -121.355427 227 27786ft 411kts
15-May-19 20:02 39.093590 -121.468135 227 27764ft 411kts
15-May-19 20:03 39.019712 -121.580465 227 27791ft 411kts
15-May-19 20:04 38.947877 -121.689302 226 27818ft 409kts
15-May-19 20:05 38.879890 -121.791964 226 27827ft 406kts
15-May-19 20:06 38.806074 -121.903061 227 27813ft 404kts
15-May-19 20:07 38.733208 -122.012350 226 27806ft 403kts
15-May-19 20:08 38.660081 -122.121651 227 27809ft 403kts
15-May-19 20:09 38.588293 -122.228578 226 27393ft 381kts
15-May-19 20:10 38.519982 -122.329970 226 26421ft 374kts
15-May-19 20:11 38.454180 -122.427381 226 25179ft 345kts
15-May-19 20:12 38.394017 -122.516811 226 23354ft 322kts
15-May-19 20:13 38.336913 -122.601539 225 21488ft 311kts
15-May-19 20:14 38.282983 -122.681345 225 19692ft 304kts
15-May-19 20:15 38.223158 -122.752863 199 17835ft 292kts
15-May-19 20:16 38.143675 -122.744236 172 15920ft 287kts
15-May-19 20:17 38.067799 -122.721941 172 14102ft 276kts
15-May-19 20:18 37.993638 -122.700252 171 11947ft 274kts
15-May-19 20:19 37.929087 -122.679345 171 10513ft 210kts
15-May-19 20:20 37.876284 -122.662568 169 8689ft 201kts
15-May-19 20:21 37.823079 -122.645709 168 7085ft 185kts
15-May-19 20:22 37.777470 -122.631218 167 5067ft 168kts
15-May-19 20:23 37.734730 -122.617689 167 3533ft 139kts
15-May-19 20:24 37.707987 -122.584022 126 3343ft 147kts
15-May-19 20:25 37.692503 -122.546065 125 2709ft 112kts
15-May-19 20:26 37.678050 -122.511273 123 2113ft 111kts
15-May-19 20:27 37.663629 -122.476686 122 1518ft 110kts
15-May-19 20:28 37.649497 -122.442580 120 915ft 109kts
15-May-19 20:29 37.635166 -122.408392 120 370ft 113kts
15-May-19 20:30 37.623329 -122.381982 186 21ft 11kts

Navigation Log

Ident Type
Flight plan parsing failed, navigation log unavailable